Almira, Washington
Current Conditions -  °F | °C
As of 5:53 PM on Wednesday 17 Dec 2014 (Local Time) from KEPH Reporting Station
Overcast Overcast  
Wind Chill: 33°   Ceiling: 10000
Heat Index: 38°   Visibility: 10mi
Dew Point: 35°   Wind: 6mph
Humidity: 89%   Direction: 340°NNW
Pressure: 29.93"   Gusts: NA
Location:  47.71°N, 118.94°W
Report Text: KEPH 180153Z AUTO 34005KT 10SM OVC100 03/02 A2993 RMK AO2 SLP145 T00330017
Loading
Personal Weather Stations






























Interactive Weather Map New forecast layout! Learn more

10-Day Weather Forecast

Advertisements
Track Severe Weather on mobile